| Date | Time | Temp. (oF) | Dew Point (oF) | Rel. Hum. (%) | Press. (in.) | Wind Dir. | Wind Speed (mph) | Hourly Rainfall (in.) |
|
|---|---|---|---|---|---|---|---|---|---|
| 1 | 02/01 | 00:00 | 16 | 13 | 89 | 30.42 | E | 0 | 0.00 |
| 2 | 01/31 | 23:00 | 18 | 14 | 87 | 30.42 | E | 0 | 0.00 |
| 3 | 01/31 | 22:00 | 20 | 15 | 84 | 30.40 | E | 0 | 0.00 |
| 4 | 01/31 | 21:00 | 22 | 16 | 79 | 30.39 | E | 0 | 0.00 |
| 5 | 01/31 | 20:00 | 25 | 17 | 72 | 30.39 | E | 0 | 0.00 |
| 6 | 01/31 | 19:00 | 28 | 18 | 67 | 30.39 | E | 0 | 0.00 |
| 7 | 01/31 | 18:00 | 32 | 19 | 59 | 30.38 | E | 0 | 0.00 |
| 8 | 01/31 | 17:00 | 35 | 19 | 53 | 30.36 | E | 2 | 0.00 |
| 9 | 01/31 | 16:00 | 36 | 20 | 52 | 30.36 | E | 4 | 0.00 |
| 10 | 01/31 | 15:00 | 36 | 20 | 53 | 30.35 | E | 1 | 0.00 |
| 11 | 01/31 | 14:00 | 36 | 21 | 56 | 30.35 | E | 4 | 0.00 |
| 12 | 01/31 | 13:00 | 35 | 22 | 59 | 30.37 | NE | 8 | 0.00 |
| 13 | 01/31 | 12:00 | 34 | 21 | 61 | 30.39 | NE | 5 | 0.00 |
| 14 | 01/31 | 11:00 | 32 | 20 | 63 | 30.41 | NNE | 2 | 0.00 |
| 15 | 01/31 | 10:00 | 27 | 21 | 80 | 30.41 | NNW | 4 | 0.00 |
| 16 | 01/31 | 09:00 | 18 | 16 | 94 | 30.40 | WNW | 2 | 0.00 |
| 17 | 01/31 | 08:00 | 11 | 8 | 91 | 30.39 | NE | 1 | 0.00 |
| 18 | 01/31 | 07:00 | 12 | 9 | 89 | 30.36 | WNW | 1 | 0.00 |
| 19 | 01/31 | 06:00 | 15 | 12 | 88 | 30.32 | N | 0 | 0.00 |
| 20 | 01/31 | 05:00 | 16 | 13 | 88 | 30.30 | N | 2 | 0.00 |
| 21 | 01/31 | 04:00 | 16 | 11 | 82 | 30.29 | S | 2 | 0.00 |
| 22 | 01/31 | 03:00 | 21 | 14 | 75 | 30.26 | WNW | 1 | 0.00 |
| 23 | 01/31 | 02:00 | 23 | 16 | 75 | 30.24 | NNW | 3 | 0.00 |
| 24 | 01/31 | 01:00 | 23 | 15 | 72 | 30.23 | SW | 1 | 0.00 |